createdAt,value
2023-04-10T00:01:18.576Z,9.87
2023-04-10T00:03:46.405Z,9.35
2023-04-10T00:06:14.176Z,8.23
2023-04-10T00:08:43.151Z,9.52
2023-04-10T00:11:10.817Z,9.48
2023-04-10T00:13:38.399Z,8.70
2023-04-10T00:16:06.760Z,8.60
2023-04-10T00:18:34.354Z,8.85
2023-04-10T00:21:03.593Z,8.82
2023-04-10T00:23:31.905Z,8.45
2023-04-10T00:26:00.889Z,8.48
2023-04-10T00:28:28.534Z,8.63
2023-04-10T00:30:56.434Z,8.75
2023-04-10T00:33:24.089Z,10.48
2023-04-10T00:35:51.725Z,8.60
2023-04-10T00:38:19.539Z,8.85
2023-04-10T00:40:47.162Z,9.15
2023-04-10T00:43:16.431Z,9.98
2023-04-10T00:45:44.045Z,8.77
2023-04-10T00:48:11.971Z,9.23
2023-04-10T00:50:39.674Z,10.18
2023-04-10T00:53:07.809Z,10.52
2023-04-10T00:55:35.587Z,10.20
2023-04-10T00:58:03.791Z,9.57
2023-04-10T01:00:33.296Z,8.93
2023-04-10T01:03:01.616Z,10.18
2023-04-10T01:05:40.523Z,9.98
2023-04-10T01:08:18.744Z,12.33
2023-04-10T01:10:52.611Z,12.32
2023-04-10T01:13:25.742Z,13.55
2023-04-10T01:16:02.646Z,11.38
2023-04-10T01:18:35.417Z,12.38
2023-04-10T01:21:08.083Z,10.93
2023-04-10T01:23:53.835Z,11.20
2023-04-10T01:26:37.749Z,11.23
2023-04-10T01:29:09.411Z,11.50
2023-04-10T01:31:43.100Z,12.00
2023-04-10T01:34:16.307Z,13.18
2023-04-10T01:36:54.853Z,11.85
2023-04-10T01:39:23.787Z,12.60
2023-04-10T01:41:53.470Z,12.27
2023-04-10T01:44:25.602Z,13.20
2023-04-10T01:46:54.674Z,13.60
2023-04-10T01:49:24.816Z,12.17
2023-04-10T01:51:54.266Z,14.38
2023-04-10T01:54:22.301Z,13.40
2023-04-10T01:56:49.904Z,12.40
2023-04-10T01:59:17.753Z,12.88
2023-04-10T02:01:47.071Z,12.68
2023-04-10T02:04:14.974Z,12.65
2023-04-10T02:06:51.437Z,12.32
2023-04-10T02:09:22.874Z,12.48
2023-04-10T02:11:55.757Z,12.70
2023-04-10T02:14:24.980Z,12.32
2023-04-10T02:16:56.301Z,13.23
2023-04-10T02:19:26.133Z,13.60
2023-04-10T02:21:55.110Z,12.27
2023-04-10T02:24:23.537Z,12.52
2023-04-10T02:26:52.743Z,13.02
2023-04-10T02:29:20.382Z,13.57
2023-04-10T02:31:48.068Z,13.57
2023-04-10T02:34:17.052Z,13.07
2023-04-10T02:36:44.664Z,13.68
2023-04-10T02:39:12.306Z,12.82
2023-04-10T02:41:39.861Z,12.90
2023-04-10T02:44:07.873Z,13.95
2023-04-10T02:46:35.653Z,14.48
2023-04-10T02:49:03.345Z,14.70
2023-04-10T02:51:36.220Z,13.10
2023-04-10T02:54:04.683Z,13.73
2023-04-10T02:56:34.891Z,14.10
2023-04-10T02:59:02.546Z,13.60
2023-04-10T03:01:30.902Z,14.18
2023-04-10T03:03:59.026Z,13.63
2023-04-10T03:06:27.377Z,13.47
2023-04-10T03:08:56.613Z,13.35
2023-04-10T03:11:24.333Z,12.27
2023-04-10T03:13:52.308Z,13.70
2023-04-10T03:16:20.695Z,14.52
2023-04-10T03:18:48.600Z,14.13
2023-04-10T03:21:16.402Z,14.07
2023-04-10T03:23:44.081Z,13.68
2023-04-10T03:26:13.028Z,13.75
2023-04-10T03:28:41.424Z,13.40
2023-04-10T03:31:09.771Z,14.18
2023-04-10T03:33:37.509Z,14.30
2023-04-10T03:36:05.982Z,13.60
2023-04-10T03:38:33.618Z,13.73
2023-04-10T03:41:01.223Z,13.50
2023-04-10T03:43:30.595Z,14.05
2023-04-10T03:45:58.281Z,13.80
2023-04-10T03:48:28.241Z,17.75
2023-04-10T03:50:56.423Z,14.07
2023-04-10T03:53:24.252Z,13.83
2023-04-10T03:55:52.452Z,14.77
2023-04-10T03:58:20.364Z,15.13
2023-04-10T04:00:49.352Z,15.13
2023-04-10T04:03:17.257Z,13.57
2023-04-10T04:05:45.469Z,15.73
2023-04-10T04:08:14.058Z,14.30
2023-04-10T04:10:41.719Z,14.82
2023-04-10T04:13:09.357Z,14.60
2023-04-10T04:15:37.047Z,15.67
2023-04-10T04:18:06.188Z,14.50
2023-04-10T04:20:33.854Z,14.63
2023-04-10T04:23:01.457Z,15.30
2023-04-10T04:25:29.107Z,15.80
2023-04-10T04:27:57.583Z,16.10
2023-04-10T04:30:25.227Z,14.98
2023-04-10T04:32:52.957Z,15.30
2023-04-10T04:35:22.705Z,14.38
2023-04-10T04:37:50.287Z,15.70
2023-04-10T04:40:18.341Z,14.77
2023-04-10T04:42:46.053Z,15.38
2023-04-10T04:45:14.203Z,16.23
2023-04-10T04:47:41.851Z,16.10
2023-04-10T04:50:11.404Z,14.95
2023-04-10T04:52:40.388Z,15.77
2023-04-10T04:55:09.672Z,14.70
2023-04-10T04:57:37.323Z,14.50
2023-04-10T05:00:06.211Z,16.35
2023-04-10T05:02:34.022Z,15.27
2023-04-10T05:05:02.088Z,15.35
2023-04-10T05:07:29.927Z,17.52
2023-04-10T05:09:58.897Z,15.85
2023-04-10T05:12:26.513Z,16.00
2023-04-10T05:14:54.321Z,14.75
2023-04-10T05:17:21.988Z,15.23
2023-04-10T05:19:49.806Z,14.75
2023-04-10T05:22:18.650Z,15.50
2023-04-10T05:24:46.582Z,15.25
2023-04-10T05:27:15.616Z,14.15
2023-04-10T05:29:43.203Z,15.20
2023-04-10T05:32:10.968Z,14.43
2023-04-10T05:34:38.654Z,14.27
2023-04-10T05:37:06.308Z,13.80
2023-04-10T05:39:33.958Z,13.15
2023-04-10T05:42:01.750Z,14.03
2023-04-10T05:44:31.718Z,14.48
2023-04-10T05:46:59.369Z,14.13
2023-04-10T05:49:27.041Z,13.85
2023-04-10T05:51:54.828Z,13.00
2023-04-10T05:54:22.727Z,13.80
2023-04-10T05:56:50.430Z,14.13
2023-04-10T05:59:18.093Z,13.40
2023-04-10T06:01:47.444Z,12.45
2023-04-10T06:04:15.459Z,13.27
2023-04-10T06:06:43.371Z,11.60
2023-04-10T06:09:11.020Z,13.27
2023-04-10T06:11:38.699Z,13.73
2023-04-10T06:14:06.713Z,13.55
2023-04-10T06:16:34.604Z,12.18
2023-04-10T06:19:03.817Z,13.43
2023-04-10T06:21:31.662Z,12.38
2023-04-10T06:23:59.298Z,12.50
2023-04-10T06:26:27.281Z,16.13
2023-04-10T06:28:55.474Z,18.67
2023-04-10T06:31:23.362Z,18.02
2023-04-10T06:33:51.548Z,18.63
2023-04-10T06:36:20.580Z,13.80
2023-04-10T06:38:48.255Z,14.73
2023-04-10T06:41:15.995Z,13.38
2023-04-10T06:43:43.837Z,14.98
2023-04-10T06:46:11.420Z,15.77
2023-04-10T06:48:38.976Z,12.73
2023-04-10T06:51:07.115Z,12.63
2023-04-10T06:53:36.322Z,12.70
2023-04-10T06:56:04.265Z,13.77
2023-04-10T06:58:32.157Z,12.40
2023-04-10T07:03:32.372Z,12.50
2023-04-10T07:06:00.502Z,11.57
2023-04-10T07:08:28.210Z,10.70
2023-04-10T07:10:58.630Z,11.27
2023-04-10T07:13:26.596Z,11.27
2023-04-10T07:15:54.319Z,11.15
2023-04-10T07:18:22.339Z,10.52
2023-04-10T07:20:52.027Z,14.67
2023-04-10T07:23:20.427Z,20.25
2023-04-10T07:25:48.162Z,31.33
2023-04-10T07:28:17.164Z,18.05
2023-04-10T07:30:44.851Z,12.18
2023-04-10T07:33:12.640Z,18.88
2023-04-10T07:35:40.516Z,13.97
2023-04-10T07:38:08.162Z,19.92
2023-04-10T07:40:35.797Z,12.85
2023-04-10T07:43:03.421Z,11.10
2023-04-10T07:45:32.689Z,11.27
2023-04-10T07:48:00.422Z,10.75
2023-04-10T07:50:28.286Z,10.27
2023-04-10T07:52:56.312Z,10.90
2023-04-10T07:55:23.974Z,9.95
2023-04-10T07:57:52.326Z,11.35
2023-04-10T08:00:20.348Z,10.95
2023-04-10T08:02:49.471Z,10.15
2023-04-10T08:05:17.336Z,10.98
2023-04-10T08:07:45.899Z,9.77
2023-04-10T08:10:13.841Z,11.40
2023-04-10T08:12:41.465Z,10.55
2023-04-10T08:15:09.885Z,11.00
2023-04-10T08:17:37.686Z,10.32
2023-04-10T08:20:08.252Z,11.30
2023-04-10T08:22:35.889Z,10.25
2023-04-10T08:25:03.796Z,10.13
2023-04-10T08:27:31.651Z,10.35
2023-04-10T08:29:59.310Z,10.68
2023-04-10T08:32:27.579Z,11.13
2023-04-10T08:34:55.352Z,9.75
2023-04-10T08:37:24.440Z,10.05
2023-04-10T08:39:52.163Z,11.02
2023-04-10T08:42:19.877Z,9.68
2023-04-10T08:44:50.202Z,9.30
2023-04-10T08:47:24.451Z,9.73
2023-04-10T08:49:55.786Z,10.18
2023-04-10T08:52:26.594Z,11.00
2023-04-10T08:54:56.567Z,10.90
2023-04-10T08:57:26.777Z,9.50
2023-04-10T08:59:54.577Z,9.30
2023-04-10T09:02:23.149Z,10.27
2023-04-10T09:04:53.987Z,9.60
2023-04-10T09:07:23.063Z,9.23
2023-04-10T09:09:52.161Z,9.05
2023-04-10T09:12:19.765Z,9.02
2023-04-10T09:14:49.674Z,9.53
2023-04-10T09:17:19.491Z,8.90
2023-04-10T09:19:48.553Z,9.45
2023-04-10T09:22:16.972Z,8.18
2023-04-10T09:24:46.655Z,8.90
2023-04-10T09:27:31.267Z,6.80
2023-04-10T09:29:59.930Z,7.00
2023-04-10T09:32:39.382Z,6.67
2023-04-10T09:35:08.603Z,7.18
2023-04-10T09:37:37.845Z,8.00
2023-04-10T09:40:06.848Z,6.90
2023-04-10T09:42:37.635Z,6.70
2023-04-10T09:45:06.381Z,6.73
2023-04-10T09:47:34.255Z,6.18
2023-04-10T09:50:02.756Z,6.55
2023-04-10T09:52:32.506Z,7.50
2023-04-10T09:55:01.921Z,7.80
2023-04-10T09:57:31.869Z,10.38
2023-04-10T10:00:02.582Z,6.90
2023-04-10T10:02:31.643Z,7.18
2023-04-10T10:05:01.672Z,6.97
2023-04-10T10:07:31.444Z,6.28
2023-04-10T10:09:59.724Z,5.95
2023-04-10T10:12:35.477Z,6.47
2023-04-10T10:15:11.830Z,6.43
2023-04-10T10:17:44.897Z,5.68
2023-04-10T10:20:14.469Z,7.10
2023-04-10T10:22:42.942Z,6.60
2023-04-10T10:25:11.783Z,6.25
2023-04-10T10:27:40.969Z,6.47
2023-04-10T10:30:27.949Z,5.18
2023-04-10T10:32:58.773Z,5.00
2023-04-10T10:35:29.700Z,5.05
2023-04-10T10:38:00.144Z,4.85
2023-04-10T10:40:32.933Z,4.90
2023-04-10T10:43:13.095Z,4.82
2023-04-10T10:45:52.046Z,5.20
2023-04-10T10:48:19.745Z,4.82
2023-04-10T10:50:57.054Z,4.60
2023-04-10T10:53:36.188Z,4.70
2023-04-10T10:56:38.523Z,4.65
2023-04-10T10:59:06.248Z,4.60
2023-04-10T11:01:35.437Z,4.80
2023-04-10T11:04:42.310Z,4.93
2023-04-10T11:07:10.364Z,4.82
2023-04-10T11:09:49.052Z,4.03
2023-04-10T11:12:17.267Z,3.70
2023-04-10T11:14:46.372Z,3.75
2023-04-10T11:17:48.953Z,5.35
2023-04-10T11:20:16.862Z,3.50
2023-04-10T11:23:11.231Z,3.70
2023-04-10T11:25:50.356Z,3.88
2023-04-10T11:28:38.256Z,3.38
2023-04-10T11:31:20.959Z,3.42
2023-04-10T11:34:01.297Z,3.35
2023-04-10T11:36:29.585Z,3.83
2023-04-10T11:38:58.723Z,3.25
2023-04-10T11:41:31.968Z,2.92
2023-04-10T11:44:00.396Z,3.17
2023-04-10T11:46:28.291Z,2.97
2023-04-10T11:49:00.632Z,3.50
2023-04-10T11:51:29.357Z,3.25
2023-04-10T11:54:10.733Z,3.00
2023-04-10T11:56:40.420Z,3.70
2023-04-10T11:59:10.950Z,4.40
2023-04-10T12:01:41.914Z,3.28
2023-04-10T12:04:19.592Z,3.00
2023-04-10T12:06:48.374Z,3.30
2023-04-10T12:09:17.502Z,3.53
2023-04-10T12:11:56.201Z,2.85
2023-04-10T12:14:25.261Z,3.00
2023-04-10T12:16:53.851Z,3.70
2023-04-10T12:19:23.712Z,3.70
2023-04-10T12:21:51.678Z,4.18
2023-04-10T12:24:44.252Z,2.67
2023-04-10T12:27:19.037Z,3.30
2023-04-10T12:29:47.387Z,3.10
2023-04-10T12:32:15.779Z,3.05
2023-04-10T12:34:51.480Z,2.90
2023-04-10T12:37:19.238Z,2.72
2023-04-10T12:39:46.971Z,3.20
2023-04-10T12:42:15.964Z,2.72
2023-04-10T12:44:54.109Z,3.10
2023-04-10T12:47:22.052Z,3.45
2023-04-10T12:50:08.765Z,2.50
2023-04-10T12:52:36.972Z,3.03
2023-04-10T12:55:13.029Z,2.80
2023-04-10T12:57:42.404Z,2.88
2023-04-10T13:00:12.431Z,2.90
2023-04-10T13:02:41.170Z,2.78
2023-04-10T13:05:11.438Z,2.70
2023-04-10T13:07:39.546Z,2.95
2023-04-10T13:10:08.392Z,2.70
2023-04-10T13:12:38.084Z,2.97
2023-04-10T13:15:07.465Z,3.10
2023-04-10T13:17:35.594Z,2.50
2023-04-10T13:20:03.674Z,3.28
2023-04-10T13:22:32.778Z,2.90
2023-04-10T13:25:00.454Z,2.42
2023-04-10T13:27:28.199Z,3.07
2023-04-10T13:29:56.469Z,3.80
2023-04-10T13:32:24.107Z,6.72
2023-04-10T13:34:52.339Z,3.97
2023-04-10T13:37:20.314Z,3.27
2023-04-10T13:39:49.673Z,2.53
2023-04-10T13:42:17.280Z,2.53
2023-04-10T13:44:45.264Z,3.40
2023-04-10T13:47:12.947Z,2.70
2023-04-10T13:49:40.777Z,2.60
2023-04-10T13:52:08.387Z,2.80
2023-04-10T13:54:36.153Z,2.60
2023-04-10T13:57:07.091Z,3.95
2023-04-10T13:59:34.731Z,3.05
2023-04-10T14:02:02.779Z,2.37
2023-04-10T14:04:30.754Z,2.75
2023-04-10T14:07:00.461Z,2.80
2023-04-10T14:09:28.195Z,2.63
2023-04-10T14:11:56.063Z,2.38
2023-04-10T14:14:25.059Z,2.40
2023-04-10T14:16:52.784Z,2.90
2023-04-10T14:19:20.697Z,2.25
2023-04-10T14:21:48.309Z,3.70
2023-04-10T14:24:15.933Z,3.00
2023-04-10T14:26:43.561Z,3.97
2023-04-10T14:29:11.233Z,2.20
2023-04-10T14:31:47.135Z,3.15
2023-04-10T14:34:22.548Z,12.45
2023-04-10T14:36:55.794Z,2.30
2023-04-10T14:39:25.050Z,1.92
2023-04-10T14:41:53.353Z,1.70
2023-04-10T14:44:21.324Z,2.00
2023-04-10T14:46:50.443Z,2.45
2023-04-10T14:49:18.197Z,2.00
2023-04-10T14:51:48.325Z,2.53
2023-04-10T14:54:16.997Z,1.60
2023-04-10T14:56:44.978Z,2.65
2023-04-10T14:59:12.635Z,2.20
2023-04-10T15:01:40.340Z,2.70
2023-04-10T15:04:09.587Z,2.22
2023-04-10T15:06:37.420Z,2.10
2023-04-10T15:09:05.178Z,2.63
2023-04-10T15:11:33.098Z,2.20
2023-04-10T15:14:02.264Z,2.65
2023-04-10T15:16:30.479Z,1.92
2023-04-10T15:18:58.195Z,2.72
2023-04-10T15:21:28.015Z,1.77
2023-04-10T15:23:55.984Z,2.00
2023-04-10T15:26:23.995Z,1.70
2023-04-10T15:28:51.693Z,2.22
2023-04-10T15:31:23.146Z,2.40
2023-04-10T15:33:52.499Z,1.80
2023-04-10T15:36:20.425Z,3.30
2023-04-10T15:38:50.376Z,2.33
2023-04-10T15:41:18.331Z,1.80
2023-04-10T15:43:46.365Z,2.10
2023-04-10T15:47:05.178Z,1.60
2023-04-10T15:49:37.933Z,3.15
2023-04-10T15:52:06.641Z,2.65
2023-04-10T15:54:36.862Z,2.60
2023-04-10T15:57:04.754Z,3.20
2023-04-10T15:59:34.013Z,2.10
2023-04-10T16:02:02.002Z,2.00
2023-04-10T16:04:31.598Z,1.90
2023-04-10T16:06:59.718Z,2.33
2023-04-10T16:09:27.627Z,1.80
2023-04-10T16:11:58.017Z,3.60
2023-04-10T16:14:25.840Z,2.30
2023-04-10T16:16:53.707Z,1.92
2023-04-10T16:19:21.910Z,2.75
2023-04-10T16:21:51.133Z,2.80
2023-04-10T16:24:19.125Z,1.80
2023-04-10T16:26:47.127Z,2.03
2023-04-10T16:29:19.526Z,1.90
2023-04-10T16:31:48.274Z,2.45
2023-04-10T16:34:16.477Z,2.77
2023-04-10T16:36:44.288Z,2.47
2023-04-10T16:39:12.364Z,2.03
2023-04-10T16:41:40.122Z,2.20
2023-04-10T16:44:08.109Z,2.95
2023-04-10T16:46:37.692Z,2.45
2023-04-10T16:49:05.711Z,2.40
2023-04-10T16:51:33.452Z,1.98
2023-04-10T16:54:02.470Z,2.08
2023-04-10T16:56:32.167Z,3.67
2023-04-10T16:58:59.932Z,2.45
2023-04-10T17:01:28.472Z,2.30
2023-04-10T17:03:57.631Z,4.03
2023-04-10T17:06:25.770Z,2.90
2023-04-10T17:08:53.698Z,2.60
2023-04-10T17:11:21.630Z,3.45
2023-04-10T17:13:49.322Z,2.30
2023-04-10T17:16:17.272Z,1.92
2023-04-10T17:18:45.236Z,2.97
2023-04-10T17:21:15.253Z,2.70
2023-04-10T17:23:43.267Z,1.77
2023-04-10T17:26:17.416Z,2.70
2023-04-10T17:28:46.299Z,2.53
2023-04-10T17:31:14.808Z,2.47
2023-04-10T17:33:42.841Z,2.50
2023-04-10T17:36:13.377Z,2.70
2023-04-10T17:38:43.398Z,3.33
2023-04-10T17:41:11.402Z,1.98
2023-04-10T17:43:40.161Z,3.10
2023-04-10T17:46:08.545Z,2.15
2023-04-10T17:48:38.969Z,2.55
2023-04-10T17:51:07.342Z,2.95
2023-04-10T17:53:35.810Z,3.30
2023-04-10T17:56:05.492Z,2.67
2023-04-10T17:58:33.429Z,2.60
2023-04-10T18:01:01.272Z,2.63
2023-04-10T18:03:29.367Z,2.35
2023-04-10T18:05:57.269Z,2.38
2023-04-10T18:08:24.997Z,2.78
2023-04-10T18:10:52.872Z,3.10
2023-04-10T18:13:21.994Z,4.53
2023-04-10T18:15:49.755Z,3.00
2023-04-10T18:18:17.373Z,2.80
2023-04-10T18:20:45.069Z,2.33
2023-04-10T18:23:13.270Z,3.55
2023-04-10T18:25:41.048Z,5.00
2023-04-10T18:28:14.972Z,3.90
2023-04-10T18:30:45.576Z,3.70
2023-04-10T18:33:14.105Z,3.10
2023-04-10T18:35:42.171Z,4.07
2023-04-10T18:38:10.469Z,2.53
2023-04-10T18:40:38.240Z,2.60
2023-04-10T18:43:06.380Z,3.03
2023-04-10T18:45:34.411Z,2.63
2023-04-10T18:48:04.662Z,2.70
2023-04-10T18:50:35.785Z,2.60
2023-04-10T18:53:03.934Z,3.72
2023-04-10T18:55:32.212Z,2.30
2023-04-10T18:58:00.535Z,2.95
2023-04-10T19:00:28.442Z,2.90
2023-04-10T19:02:56.713Z,2.97
2023-04-10T19:05:29.126Z,2.90
2023-04-10T19:08:04.152Z,3.97
2023-04-10T19:10:33.152Z,2.33
2023-04-10T19:13:01.034Z,3.63
2023-04-10T19:15:28.871Z,2.70
2023-04-10T19:17:57.174Z,2.63
2023-04-10T19:20:50.208Z,3.03
2023-04-10T19:23:14.701Z,3.17
2023-04-10T19:25:43.663Z,3.00
2023-04-10T19:28:11.682Z,2.45
2023-04-10T19:30:39.643Z,2.85
2023-04-10T19:33:07.490Z,2.58
2023-04-10T19:35:36.908Z,2.40
2023-04-10T19:38:04.856Z,3.05
2023-04-10T19:40:32.814Z,2.55
2023-04-10T19:43:01.985Z,4.07
2023-04-10T19:45:33.134Z,1.77
2023-04-10T19:48:01.188Z,2.70
2023-04-10T19:50:30.701Z,2.80
2023-04-10T19:53:00.560Z,2.17
2023-04-10T19:55:29.089Z,4.20
2023-04-10T19:57:57.106Z,2.67
2023-04-10T20:00:25.100Z,2.70
2023-04-10T20:02:53.252Z,4.30
2023-04-10T20:05:21.785Z,2.65
2023-04-10T20:07:50.310Z,2.50
2023-04-10T20:10:20.999Z,3.73
2023-04-10T20:12:48.637Z,3.40
2023-04-10T20:15:16.425Z,3.10
2023-04-10T20:17:44.084Z,3.03
2023-04-10T20:20:13.728Z,2.97
2023-04-10T20:22:41.471Z,2.95
2023-04-10T20:25:09.872Z,2.60
2023-04-10T20:27:38.990Z,3.63
2023-04-10T20:30:08.272Z,2.97
2023-04-10T20:32:37.041Z,3.67
2023-04-10T20:35:05.299Z,3.95
2023-04-10T20:37:33.008Z,3.45
2023-04-10T20:40:01.116Z,2.85
2023-04-10T20:42:28.970Z,2.78
2023-04-10T20:44:59.161Z,2.90
2023-04-10T20:47:26.870Z,5.83
2023-04-10T20:49:55.127Z,2.58
2023-04-10T20:52:24.001Z,4.20
2023-04-10T20:54:52.805Z,3.10
2023-04-10T20:57:20.837Z,3.45
2023-04-10T20:59:48.616Z,4.83
2023-04-10T21:02:18.208Z,3.22
2023-04-10T21:04:45.962Z,3.70
2023-04-10T21:07:13.636Z,6.70
2023-04-10T21:09:41.410Z,3.72
2023-04-10T21:12:09.173Z,5.90
2023-04-10T21:14:37.093Z,4.15
2023-04-10T21:17:04.912Z,4.63
2023-04-10T21:19:34.438Z,2.45
2023-04-10T21:22:02.405Z,4.10
2023-04-10T21:24:30.494Z,5.22
2023-04-10T21:26:59.643Z,5.72
2023-04-10T21:29:28.586Z,3.90
2023-04-10T21:31:57.008Z,3.17
2023-04-10T21:34:25.148Z,2.25
2023-04-10T21:36:55.206Z,4.03
2023-04-10T21:39:23.004Z,4.38
2023-04-10T21:41:55.319Z,4.25
2023-04-10T21:44:23.387Z,2.70
2023-04-10T21:46:51.220Z,5.53
2023-04-10T21:49:18.987Z,3.75
2023-04-10T21:51:46.632Z,3.85
2023-04-10T21:54:16.023Z,3.72
2023-04-10T21:56:43.628Z,2.80
2023-04-10T21:59:11.553Z,3.92
2023-04-10T22:01:41.490Z,3.17
2023-04-10T22:04:09.477Z,3.53
2023-04-10T22:06:37.229Z,3.50
2023-04-10T22:09:05.058Z,2.97
2023-04-10T22:11:34.675Z,3.28
2023-04-10T22:14:14.887Z,2.28
2023-04-10T22:16:45.538Z,2.92
2023-04-10T22:19:13.417Z,3.20
2023-04-10T22:21:41.185Z,2.38
2023-04-10T22:24:09.267Z,3.15
2023-04-10T22:26:38.351Z,4.85
2023-04-10T22:29:06.033Z,2.80
2023-04-10T22:31:33.740Z,3.38
2023-04-10T22:34:01.422Z,2.25
2023-04-10T22:36:32.795Z,3.38
2023-04-10T22:39:00.490Z,4.05
2023-04-10T22:41:28.403Z,2.50
2023-04-10T22:43:57.468Z,2.45
2023-04-10T22:46:25.363Z,4.40
2023-04-10T22:48:54.186Z,2.47
2023-04-10T22:51:22.089Z,2.33
2023-04-10T22:53:49.735Z,2.42
2023-04-10T22:56:18.549Z,4.67
2023-04-10T22:58:46.286Z,2.75
2023-04-10T23:01:15.767Z,4.75
2023-04-10T23:03:43.449Z,3.30
2023-04-10T23:06:11.174Z,4.13
2023-04-10T23:08:38.888Z,3.20
2023-04-10T23:11:07.024Z,3.03
2023-04-10T23:13:34.882Z,3.42
2023-04-10T23:16:02.516Z,3.40
2023-04-10T23:18:31.511Z,4.38
2023-04-10T23:20:59.150Z,4.25
2023-04-10T23:23:26.877Z,3.15
2023-04-10T23:25:59.142Z,4.50
2023-04-10T23:28:26.955Z,3.42
2023-04-10T23:30:54.643Z,3.58
2023-04-10T23:33:22.525Z,4.20
2023-04-10T23:35:51.606Z,3.92
2023-04-10T23:38:19.429Z,3.97
2023-04-10T23:40:47.343Z,3.10
2023-04-10T23:43:15.214Z,3.55
2023-04-10T23:45:42.905Z,2.75
2023-04-10T23:48:11.710Z,2.97
2023-04-10T23:50:39.641Z,3.22
2023-04-10T23:53:09.169Z,3.65
2023-04-10T23:55:36.891Z,2.38
2023-04-10T23:58:04.714Z,4.07
